Time;durP1;ratioP1;P1;durP2;ratioP2;P2;SDS_P1;SDS_P2;PMS_P1;PMS_P2;Temp;Humidity;BMP_temperature;BMP_pressure;BME280_temperature;BME280_humidity;BME280_pressure;Samples;Min_cycle;Max_cycle;Signal;HPM_P1;HPM_P2
2021/08/12 00:00:53;;;;;;;13.77;2.60;;;;;;;12.23;81.69;100848.16;4873559;29;20950;-85
2021/08/12 00:03:19;;;;;;;11.52;2.10;;;;;;;12.26;81.41;100844.25;4866890;29;20041;-86
2021/08/12 00:05:44;;;;;;;11.80;2.22;;;;;;;12.25;81.75;100842.56;4874709;29;20028;-86
2021/08/12 00:08:10;;;;;;;12.82;2.60;;;;;;;12.28;81.73;100842.22;4873442;29;20033;-84
2021/08/12 00:10:35;;;;;;;12.85;1.88;;;;;;;12.32;81.89;100847.03;4860724;29;20035;-86
2021/08/12 00:13:01;;;;;;;9.95;1.75;;;;;;;12.30;81.79;100823.97;4862056;29;20025;-86
2021/08/12 00:15:26;;;;;;;12.68;1.95;;;;;;;12.21;81.44;100817.84;4874619;29;20044;-86
2021/08/12 00:17:52;;;;;;;10.75;1.98;;;;;;;12.21;81.99;100822.41;4858187;29;20031;-87
2021/08/12 00:20:18;;;;;;;12.25;2.33;;;;;;;12.04;82.13;100797.47;4868575;29;20040;-85
2021/08/12 00:22:43;;;;;;;12.25;2.85;;;;;;;12.17;82.03;100829.19;4859794;29;20400;-86
2021/08/12 00:25:09;;;;;;;12.02;3.05;;;;;;;12.12;81.97;100821.66;4858557;29;20565;-85
2021/08/12 00:27:35;;;;;;;6.68;2.08;;;;;;;12.15;82.16;100823.97;4862479;29;20029;-85
2021/08/12 00:30:01;;;;;;;10.77;3.15;;;;;;;12.16;82.21;100825.66;4871438;29;20498;-85
2021/08/12 00:32:26;;;;;;;11.10;3.08;;;;;;;12.12;82.25;100813.56;4871478;29;20021;-86
2021/08/12 00:34:52;;;;;;;4.95;2.40;;;;;;;12.09;82.02;100809.38;4873870;29;20025;-85
2021/08/12 00:37:18;;;;;;;8.73;2.97;;;;;;;11.84;82.27;100762.94;4854903;29;20440;-86
2021/08/12 00:39:43;;;;;;;8.85;2.33;;;;;;;12.13;82.48;100817.09;4856674;29;20029;-85
2021/08/12 00:42:09;;;;;;;9.50;2.38;;;;;;;12.10;82.20;100800.28;4868415;29;20402;-85
2021/08/12 00:44:34;;;;;;;12.65;2.33;;;;;;;12.02;82.31;100786.88;4872382;29;20526;-86
2021/08/12 00:47:00;;;;;;;11.23;2.95;;;;;;;12.11;82.35;100806.50;4867526;29;20021;-85
2021/08/12 00:49:25;;;;;;;10.00;1.70;;;;;;;12.09;82.15;100800.44;4872906;29;20032;-85
2021/08/12 00:51:51;;;;;;;9.73;1.70;;;;;;;11.97;82.31;100780.38;4858737;29;20036;-85
2021/08/12 00:54:16;;;;;;;8.68;2.15;;;;;;;12.06;82.47;100793.56;4864785;29;20030;-86
2021/08/12 00:56:43;;;;;;;8.80;2.00;;;;;;;12.12;81.95;100794.72;4873227;29;20077;-85
2021/08/12 00:59:09;;;;;;;13.07;2.05;;;;;;;12.10;82.36;100784.09;4872422;29;20028;-86
2021/08/12 01:01:35;;;;;;;8.27;1.80;;;;;;;12.08;82.20;100775.34;4856057;29;20051;-86
2021/08/12 01:04:00;;;;;;;12.13;2.25;;;;;;;12.17;81.79;100773.44;4869683;29;20108;-87
2021/08/12 01:06:52;;;;;;;9.25;1.58;;;;;;;12.19;81.83;100763.28;4864683;29;20025;-86
2021/08/12 01:09:28;;;;;;;10.57;1.90;;;;;;;12.20;81.85;100766.78;4871415;29;20029;-85
2021/08/12 01:11:58;;;;;;;9.65;2.03;;;;;;;12.12;82.02;100748.03;4868259;29;20592;-87
2021/08/12 01:14:28;;;;;;;9.52;1.98;;;;;;;12.22;81.70;100762.91;4867485;29;20572;-86
2021/08/12 01:17:05;;;;;;;4.78;1.23;;;;;;;12.24;81.68;100758.16;4882608;29;20036;-86
2021/08/12 01:19:51;;;;;;;12.07;1.80;;;;;;;12.23;82.12;100753.81;4882699;29;20033;-85
2021/08/12 01:22:21;;;;;;;10.48;2.30;;;;;;;12.19;81.96;100732.78;4858441;29;20041;-85
2021/08/12 01:24:50;;;;;;;8.40;2.20;;;;;;;12.32;81.97;100743.75;4869313;29;20036;-84
2021/08/12 01:27:17;;;;;;;12.45;2.50;;;;;;;12.34;81.72;100746.28;4870467;29;20071;-84
2021/08/12 01:30:08;;;;;;;11.95;2.58;;;;;;;12.39;81.48;100736.59;4857174;29;20032;-86
2021/08/12 01:33:01;;;;;;;11.35;2.60;;;;;;;12.35;81.50;100723.66;4855525;29;20059;-85
2021/08/12 01:35:29;;;;;;;17.65;2.72;;;;;;;12.44;81.12;100722.53;4874167;29;20029;-86
2021/08/12 01:38:21;;;;;;;17.73;2.85;;;;;;;12.44;80.99;100726.06;4861176;29;20043;-84
2021/08/12 01:40:50;;;;;;;9.40;2.40;;;;;;;12.44;81.00;100711.75;4866294;29;20025;-85
2021/08/12 01:43:16;;;;;;;12.93;2.30;;;;;;;12.44;81.03;100700.97;4878016;29;20134;-85
2021/08/12 01:45:50;;;;;;;8.18;1.98;;;;;;;12.47;80.98;100695.19;4874126;29;20395;-85
2021/08/12 01:48:16;;;;;;;8.63;2.03;;;;;;;12.47;80.57;100695.19;4860226;29;20123;-85
2021/08/12 01:50:42;;;;;;;14.10;2.08;;;;;;;12.50;80.96;100698.34;4855643;29;20044;-85
2021/08/12 01:53:10;;;;;;;6.65;1.83;;;;;;;12.50;80.60;100686.72;4869381;29;20100;-85
2021/08/12 01:55:35;;;;;;;8.63;1.58;;;;;;;12.58;80.09;100697.38;4858756;29;20033;-84
2021/08/12 01:58:01;;;;;;;6.68;1.60;;;;;;;12.62;80.08;100689.75;4871475;29;21968;-84
2021/08/12 02:00:30;;;;;;;13.68;2.35;;;;;;;12.67;79.26;100677.34;4853941;29;20489;-86
2021/08/12 02:02:56;;;;;;;11.00;2.00;;;;;;;12.71;79.18;100686.75;4867615;29;20033;-84
2021/08/12 02:05:22;;;;;;;13.90;2.88;;;;;;;12.71;78.96;100665.16;4866683;29;20033;-85
2021/08/12 02:07:48;;;;;;;12.77;2.25;;;;;;;12.81;78.41;100666.69;4857092;29;20048;-85
2021/08/12 02:10:15;;;;;;;4.13;1.70;;;;;;;12.83;78.44;100675.44;4876895;29;20031;-84
2021/08/12 02:12:42;;;;;;;13.82;1.88;;;;;;;12.83;78.10;100676.25;4853739;29;20033;-86
2021/08/12 02:15:08;;;;;;;13.25;2.25;;;;;;;12.82;78.50;100677.31;4874243;29;20032;-85
2021/08/12 02:17:34;;;;;;;7.57;1.70;;;;;;;12.77;78.21;100667.09;4875593;29;20737;-84
2021/08/12 02:20:02;;;;;;;8.00;1.90;;;;;;;12.76;78.60;100651.94;4853675;29;20029;-86
2021/08/12 02:22:30;;;;;;;9.85;1.80;;;;;;;12.87;78.48;100663.25;4877301;29;20049;-85
2021/08/12 02:25:28;;;;;;;8.73;1.92;;;;;;;12.90;78.45;100665.56;4872410;29;20032;-85
2021/08/12 02:27:55;;;;;;;12.35;2.00;;;;;;;12.90;78.33;100654.75;4868397;29;20048;-86
2021/08/12 02:30:20;;;;;;;11.43;2.08;;;;;;;12.91;78.38;100656.41;4849607;29;20045;-85
2021/08/12 02:32:46;;;;;;;10.95;1.75;;;;;;;12.87;77.78;100638.97;4856789;29;20033;-86
2021/08/12 02:35:12;;;;;;;6.78;2.00;;;;;;;12.90;78.22;100644.78;4857203;29;20525;-85
2021/08/12 02:37:38;;;;;;;13.02;2.58;;;;;;;12.90;78.45;100660.16;4872043;29;20035;-84
2021/08/12 02:40:06;;;;;;;10.48;1.83;;;;;;;12.59;78.53;100595.72;4871306;29;20549;-84
2021/08/12 02:42:33;;;;;;;17.25;2.10;;;;;;;12.73;78.93;100622.66;4859062;29;20025;-86
2021/08/12 02:44:59;;;;;;;9.65;1.55;;;;;;;12.76;79.56;100633.03;4867265;29;20080;-86
2021/08/12 02:47:25;;;;;;;8.93;1.65;;;;;;;12.66;79.74;100616.34;4869305;29;20041;-85
2021/08/12 02:49:54;;;;;;;10.27;2.05;;;;;;;12.72;79.51;100631.75;4867020;29;20033;-86
2021/08/12 02:52:20;;;;;;;5.93;1.58;;;;;;;12.72;79.98;100618.25;4862082;29;20387;-87
2021/08/12 02:54:47;;;;;;;9.48;2.00;;;;;;;12.63;80.18;100605.94;4855555;29;20514;-85
2021/08/12 02:57:13;;;;;;;7.65;1.45;;;;;;;12.65;80.20;100617.38;4857866;29;20475;-85
2021/08/12 02:59:43;;;;;;;8.30;1.80;;;;;;;12.62;80.29;100612.38;4858221;29;21586;-85
2021/08/12 03:02:09;;;;;;;11.98;2.00;;;;;;;12.66;80.60;100615.50;4872796;29;20033;-85
2021/08/12 03:04:35;;;;;;;11.45;2.13;;;;;;;12.51;80.86;100592.13;4863764;29;20498;-84
2021/08/12 03:07:02;;;;;;;18.38;2.72;;;;;;;12.62;80.72;100606.13;4872311;29;20029;-85
2021/08/12 03:09:29;;;;;;;18.73;2.97;;;;;;;12.63;80.72;100610.50;4861232;29;20029;-83
2021/08/12 03:11:56;;;;;;;13.65;1.80;;;;;;;12.60;80.81;100597.41;4867084;29;20041;-85
2021/08/12 03:14:22;;;;;;;11.05;1.85;;;;;;;12.46;80.69;100572.16;4863409;29;20040;-85
2021/08/12 03:16:47;;;;;;;7.25;1.60;;;;;;;12.63;80.55;100595.16;4876883;29;20037;-85
2021/08/12 03:19:18;;;;;;;11.05;1.88;;;;;;;12.57;81.30;100593.25;4875346;29;20036;-84
2021/08/12 03:22:11;;;;;;;9.18;1.80;;;;;;;12.56;81.22;100601.50;4859919;29;20505;-84
2021/08/12 03:24:42;;;;;;;13.30;2.50;;;;;;;12.55;81.17;100587.19;4887555;29;20075;-85
2021/08/12 03:27:11;;;;;;;15.93;2.20;;;;;;;12.59;81.62;100595.72;4872364;29;20434;-85
2021/08/12 03:29:37;;;;;;;13.38;2.08;;;;;;;12.54;81.72;100591.75;4860723;29;20049;-86
2021/08/12 03:32:03;;;;;;;9.57;2.17;;;;;;;12.53;82.03;100578.47;4873156;29;20512;-86
2021/08/12 03:34:28;;;;;;;7.50;1.83;;;;;;;12.50;82.45;100568.88;4868913;29;20056;-85
2021/08/12 03:36:54;;;;;;;6.53;1.65;;;;;;;12.32;82.08;100536.16;4857813;29;20052;-85
2021/08/12 03:39:21;;;;;;;11.00;1.67;;;;;;;12.35;82.64;100548.41;4878335;29;20032;-85
2021/08/12 03:41:46;;;;;;;16.15;2.28;;;;;;;12.49;82.68;100582.56;4861273;29;20029;-84
2021/08/12 03:44:12;;;;;;;13.30;2.58;;;;;;;12.30;82.61;100530.97;4876847;29;20029;-86
2021/08/12 03:46:37;;;;;;;14.07;2.72;;;;;;;12.48;83.01;100554.75;4885803;29;20057;-88
2021/08/12 03:49:03;;;;;;;14.25;2.50;;;;;;;12.48;82.65;100554.75;4886159;29;20529;-86
2021/08/12 03:51:29;;;;;;;11.38;2.28;;;;;;;12.47;82.70;100539.63;4883386;29;20398;-85
2021/08/12 03:53:55;;;;;;;12.88;2.47;;;;;;;12.49;83.06;100542.09;4874647;29;20029;-85
2021/08/12 03:56:21;;;;;;;14.57;2.90;;;;;;;12.44;82.94;100529.22;4873687;29;20039;-88
2021/08/12 03:58:46;;;;;;;7.70;1.60;;;;;;;12.44;83.29;100526.53;4878947;29;20040;-89
2021/08/12 04:01:12;;;;;;;11.48;2.33;;;;;;;12.43;83.20;100527.53;4874567;29;20414;-87
2021/08/12 04:03:37;;;;;;;9.52;1.83;;;;;;;12.45;83.29;100530.06;4879381;29;20452;-86
2021/08/12 04:06:02;;;;;;;12.35;2.20;;;;;;;12.39;82.82;100520.03;4886060;29;20385;-86
2021/08/12 04:08:30;;;;;;;11.57;3.17;;;;;;;12.44;82.86;100520.31;4878516;29;20036;-86
2021/08/12 04:10:56;;;;;;;10.98;3.17;;;;;;;12.46;83.05;100529.00;4879002;29;20553;-85
2021/08/12 04:13:21;;;;;;;9.43;2.15;;;;;;;12.46;83.07;100526.31;4875302;29;20029;-87
2021/08/12 04:15:47;;;;;;;9.55;2.03;;;;;;;12.42;83.02;100522.34;4884338;29;20046;-88
2021/08/12 04:18:12;;;;;;;12.98;2.08;;;;;;;12.48;82.66;100510.78;4879518;29;20037;-86
2021/08/12 04:20:37;;;;;;;14.98;2.30;;;;;;;12.18;82.77;100465.09;4887727;29;20029;-89
2021/08/12 04:23:03;;;;;;;16.90;2.90;;;;;;;12.24;83.29;100467.03;4883350;29;20084;-87
2021/08/12 04:25:28;;;;;;;13.48;3.15;;;;;;;12.39;82.70;100483.13;4888990;29;20041;-87
2021/08/12 04:27:54;;;;;;;7.47;2.22;;;;;;;12.42;83.22;100490.81;4904063;29;20056;-87
2021/08/12 04:30:21;;;;;;;9.38;1.80;;;;;;;12.34;83.10;100473.97;4868445;29;20036;-87
2021/08/12 04:32:46;;;;;;;9.35;1.92;;;;;;;12.40;82.80;100481.25;4881634;29;20021;-86
2021/08/12 04:35:12;;;;;;;12.85;2.25;;;;;;;12.48;83.13;100500.81;4887463;29;20043;-90
2021/08/12 04:37:43;;;;;;;9.43;1.95;;;;;;;12.41;83.12;100488.31;4869856;29;20035;-88
2021/08/12 04:40:10;;;;;;;7.57;1.88;;;;;;;12.43;83.11;100487.09;4884152;29;20536;-88
2021/08/12 04:42:36;;;;;;;10.82;2.03;;;;;;;12.41;82.81;100483.78;4871331;29;20048;-85
2021/08/12 04:45:01;;;;;;;12.57;1.90;;;;;;;12.50;83.08;100479.06;4883867;29;20382;-85
2021/08/12 04:47:28;;;;;;;9.07;2.40;;;;;;;12.43;82.96;100459.28;4883516;29;20025;-86
2021/08/12 04:49:53;;;;;;;9.00;2.63;;;;;;;12.50;83.03;100462.88;4882337;29;20033;-85
2021/08/12 04:52:19;;;;;;;13.50;2.35;;;;;;;12.46;83.10;100448.97;4873717;29;20032;-85
2021/08/12 04:54:44;;;;;;;10.75;1.80;;;;;;;12.54;83.06;100462.31;4882761;29;20509;-87
2021/08/12 04:57:10;;;;;;;9.15;2.38;;;;;;;12.50;83.42;100452.94;4861245;29;20184;-87
2021/08/12 04:59:35;;;;;;;12.55;2.30;;;;;;;12.53;83.22;100457.91;4868604;29;20033;-86
2021/08/12 05:02:01;;;;;;;6.78;1.77;;;;;;;12.57;83.24;100442.19;4881259;29;20036;-86
2021/08/12 05:04:26;;;;;;;14.50;2.15;;;;;;;12.61;83.23;100453.41;4880310;29;20089;-87
2021/08/12 05:06:52;;;;;;;9.88;2.58;;;;;;;12.60;82.94;100452.59;4885288;29;20024;-88
2021/08/12 05:09:17;;;;;;;7.72;1.98;;;;;;;12.66;82.82;100438.31;4869969;29;20814;-86
2021/08/12 05:11:43;;;;;;;12.13;2.13;;;;;;;12.63;82.45;100446.81;4868470;29;20033;-88
2021/08/12 05:14:08;;;;;;;8.77;2.58;;;;;;;12.64;82.25;100429.56;4867634;29;20028;-87
2021/08/12 05:16:33;;;;;;;12.43;2.15;;;;;;;12.74;82.23;100451.63;4861447;29;20083;-85
2021/08/12 05:18:59;;;;;;;11.50;2.58;;;;;;;12.56;82.37;100427.03;4869091;29;20029;-86
2021/08/12 05:21:24;;;;;;;15.95;2.20;;;;;;;12.71;82.29;100462.84;4872512;29;20033;-88
2021/08/12 05:23:50;;;;;;;16.98;2.30;;;;;;;12.74;82.34;100448.13;4867383;29;20033;-86
2021/08/12 05:26:15;;;;;;;9.25;2.47;;;;;;;12.75;82.59;100463.25;4882080;29;20101;-86
2021/08/12 05:28:40;;;;;;;16.48;2.78;;;;;;;12.76;82.87;100471.16;4873676;29;20038;-86
2021/08/12 05:31:07;;;;;;;6.55;1.67;;;;;;;12.74;83.15;100450.81;4876226;29;20029;-86
2021/08/12 05:33:34;;;;;;;13.23;2.22;;;;;;;12.79;82.90;100442.13;4877080;29;20127;-89
2021/08/12 05:35:59;;;;;;;23.77;4.15;;;;;;;12.72;82.85;100433.97;4879894;29;20033;-86
2021/08/12 05:38:25;;;;;;;10.02;1.65;;;;;;;12.79;82.83;100459.16;4866132;29;20184;-87
2021/08/12 05:40:50;;;;;;;12.57;1.90;;;;;;;12.81;82.73;100450.84;4877502;29;20029;-87
2021/08/12 05:43:16;;;;;;;13.10;2.42;;;;;;;12.81;82.76;100442.75;4882059;29;20057;-86
2021/08/12 05:45:41;;;;;;;7.80;2.70;;;;;;;12.80;82.36;100431.13;4867735;29;20371;-86
2021/08/12 05:48:06;;;;;;;20.50;2.83;;;;;;;12.84;82.57;100445.91;4873805;29;20028;-85
2021/08/12 05:50:33;;;;;;;13.77;1.95;;;;;;;12.87;82.25;100441.97;4883598;29;20044;-86
2021/08/12 05:52:58;;;;;;;10.52;1.90;;;;;;;12.91;81.87;100427.03;4880443;29;20030;-90
2021/08/12 05:55:24;;;;;;;11.10;1.88;;;;;;;12.97;81.57;100445.16;4879055;29;20405;-85
2021/08/12 05:57:49;;;;;;;9.93;2.30;;;;;;;12.97;81.48;100427.09;4875216;29;20027;-85
2021/08/12 06:00:15;;;;;;;7.72;1.88;;;;;;;13.13;81.10;100446.69;4876556;29;20045;-87
2021/08/12 06:02:40;;;;;;;14.23;2.38;;;;;;;13.13;80.84;100420.53;4882385;29;20035;-88
2021/08/12 06:05:06;;;;;;;9.65;2.20;;;;;;;13.27;80.71;100450.31;4860541;29;20267;-88
2021/08/12 06:07:32;;;;;;;16.10;2.22;;;;;;;13.25;80.37;100414.53;4887237;29;20485;-86
2021/08/12 06:09:57;;;;;;;9.73;2.80;;;;;;;13.38;79.99;100447.03;4865673;29;20478;-86
2021/08/12 06:12:22;;;;;;;9.25;2.33;;;;;;;13.44;80.33;100435.41;4878675;29;20025;-86
2021/08/12 06:14:48;;;;;;;5.95;1.75;;;;;;;13.20;79.87;100397.09;4891097;29;20493;-87
2021/08/12 06:17:13;;;;;;;10.35;2.70;;;;;;;13.46;80.19;100438.75;4879084;29;20028;-85
2021/08/12 06:19:39;;;;;;;14.55;2.30;;;;;;;13.46;80.52;100422.53;4878244;29;20024;-85
2021/08/12 06:22:04;;;;;;;12.40;2.60;;;;;;;13.39;80.37;100414.44;4874101;29;20036;-91
2021/08/12 06:24:30;;;;;;;9.73;1.70;;;;;;;13.37;80.39;100411.09;4873798;29;20056;-87
2021/08/12 06:26:55;;;;;;;9.98;1.67;;;;;;;13.57;80.19;100421.09;4891709;29;20048;-89
2021/08/12 06:29:21;;;;;;;12.48;1.90;;;;;;;13.40;80.21;100393.66;4882723;29;20479;-87
2021/08/12 06:31:47;;;;;;;9.60;2.10;;;;;;;13.47;80.48;100386.41;4876691;29;20044;-90
2021/08/12 06:34:12;;;;;;;10.07;2.70;;;;;;;13.48;80.45;100382.66;4882190;29;20021;-86
2021/08/12 06:36:37;;;;;;;10.18;3.15;;;;;;;13.44;80.28;100370.59;4875924;29;20029;-89
2021/08/12 06:39:03;;;;;;;10.73;1.92;;;;;;;13.37;80.04;100362.47;4900191;29;20032;-87
2021/08/12 06:41:29;;;;;;;9.10;1.90;;;;;;;13.63;80.20;100390.59;4871700;29;20102;-86
2021/08/12 06:43:55;;;;;;;12.43;1.90;;;;;;;13.70;80.23;100413.03;4873871;29;20063;-85
2021/08/12 06:46:20;;;;;;;9.18;2.13;;;;;;;13.69;80.23;100402.44;4880596;29;20041;-88
2021/08/12 06:48:46;;;;;;;9.95;2.22;;;;;;;13.70;80.29;100404.94;4879967;29;20119;-85
2021/08/12 06:51:11;;;;;;;12.20;2.45;;;;;;;13.56;80.35;100385.16;4871429;29;20025;-90
2021/08/12 06:53:37;;;;;;;9.18;2.60;;;;;;;13.69;80.45;100402.44;4876126;29;20037;-86
2021/08/12 06:56:03;;;;;;;13.27;2.65;;;;;;;13.58;80.25;100383.09;4870377;29;20029;-85
2021/08/12 06:58:29;;;;;;;15.73;2.17;;;;;;;13.63;80.22;100414.91;4890325;29;20025;-86
2021/08/12 07:00:54;;;;;;;11.80;2.50;;;;;;;13.59;80.29;100403.66;4878746;29;20062;-89
2021/08/12 07:03:20;;;;;;;10.10;2.22;;;;;;;13.59;80.75;100382.06;4881142;29;20049;-88
2021/08/12 07:05:45;;;;;;;15.23;2.67;;;;;;;13.62;80.43;100392.44;4884705;29;20033;-85
2021/08/12 07:08:11;;;;;;;15.23;2.35;;;;;;;13.64;80.62;100384.16;4884194;29;20029;-88
2021/08/12 07:10:36;;;;;;;13.20;2.28;;;;;;;13.74;80.33;100386.47;4887636;29;20101;-86
2021/08/12 07:13:02;;;;;;;13.57;2.30;;;;;;;13.95;80.00;100377.34;4863926;29;20035;-86
2021/08/12 07:15:27;;;;;;;11.18;2.00;;;;;;;14.12;79.24;100377.75;4868040;29;20040;-86
2021/08/12 07:17:53;;;;;;;10.52;2.10;;;;;;;14.33;78.91;100379.41;4871095;29;20181;-86
2021/08/12 07:20:18;;;;;;;17.17;2.90;;;;;;;14.15;78.57;100355.69;4869381;29;20037;-85
2021/08/12 07:22:44;;;;;;;12.10;3.28;;;;;;;14.34;78.78;100392.69;4875413;29;20029;-87
2021/08/12 07:25:10;;;;;;;15.48;2.67;;;;;;;14.41;78.58;100366.47;4862785;29;20025;-86
2021/08/12 07:27:35;;;;;;;18.92;2.50;;;;;;;14.43;78.70;100367.09;4875802;29;20116;-85
2021/08/12 07:30:01;;;;;;;11.02;2.60;;;;;;;14.63;77.97;100369.81;4862400;29;20040;-85
2021/08/12 07:32:26;;;;;;;10.10;2.13;;;;;;;14.66;77.72;100363.97;4875246;29;20030;-85
2021/08/12 07:34:51;;;;;;;13.32;3.75;;;;;;;14.68;77.98;100358.34;4860697;29;20116;-88
2021/08/12 07:37:17;;;;;;;13.80;2.20;;;;;;;14.74;77.74;100362.91;4892132;29;20025;-85
2021/08/12 07:39:42;;;;;;;7.03;2.15;;;;;;;14.76;77.67;100351.84;4868901;29;20034;-85
2021/08/12 07:42:08;;;;;;;7.63;1.92;;;;;;;14.83;77.42;100348.09;4870113;29;21001;-85
2021/08/12 07:44:33;;;;;;;9.88;2.08;;;;;;;14.93;76.83;100342.22;4872306;29;20031;-86
2021/08/12 07:46:59;;;;;;;15.35;2.85;;;;;;;15.00;76.73;100353.84;4869312;29;20043;-85
2021/08/12 07:49:24;;;;;;;20.45;3.03;;;;;;;14.90;76.89;100331.84;4849351;29;20037;-85
2021/08/12 07:51:50;;;;;;;13.05;3.00;;;;;;;14.86;77.13;100320.59;4871367;29;20093;-85
2021/08/12 07:54:17;;;;;;;15.55;2.92;;;;;;;14.81;77.29;100333.94;4870554;29;20025;-83
2021/08/12 07:56:43;;;;;;;11.50;2.08;;;;;;;14.75;76.95;100296.09;4869039;29;20029;-85
2021/08/12 08:02:02;;;;;;;13.02;2.45;;;;;;;15.22;76.39;100311.06;4875688;29;20037;-86
2021/08/12 08:04:27;;;;;;;9.95;2.25;;;;;;;15.31;75.36;100308.91;4876843;29;20048;-85
2021/08/12 08:06:53;;;;;;;13.02;2.88;;;;;;;15.53;74.73;100306.66;4872191;29;20039;-85
2021/08/12 08:09:18;;;;;;;10.48;2.35;;;;;;;15.71;74.56;100323.03;4861137;29;20044;-85
2021/08/12 08:11:44;;;;;;;11.95;2.13;;;;;;;15.93;73.65;100314.50;4873304;29;20033;-85
2021/08/12 08:14:09;;;;;;;15.93;3.47;;;;;;;15.92;73.02;100312.88;4867933;29;20506;-86
2021/08/12 08:16:34;;;;;;;10.88;2.28;;;;;;;15.82;73.45;100291.66;4878943;29;20024;-86
2021/08/12 08:19:00;;;;;;;13.93;2.92;;;;;;;15.70;73.68;100299.69;4857927;29;20048;-89
2021/08/12 08:21:28;;;;;;;15.57;2.58;;;;;;;15.53;74.43;100288.56;4866726;29;20033;-87
2021/08/12 08:23:53;;;;;;;11.80;3.00;;;;;;;15.34;75.10;100309.28;4881050;29;20029;-86
2021/08/12 08:26:19;;;;;;;11.55;2.50;;;;;;;15.17;76.30;100294.63;4867823;29;20099;-85
2021/08/12 08:28:44;;;;;;;19.00;3.88;;;;;;;15.05;77.00;100301.75;4881490;29;20036;-86
2021/08/12 08:31:10;;;;;;;17.70;3.13;;;;;;;15.02;76.89;100303.03;4870009;29;20028;-87
2021/08/12 08:33:36;;;;;;;12.00;5.25;;;;;;;14.94;76.79;100290.56;4858754;29;20037;-85
2021/08/12 08:36:03;;;;;;;12.20;2.85;;;;;;;14.92;76.82;100286.41;4867069;29;20017;-86
2021/08/12 08:38:28;;;;;;;18.02;3.47;;;;;;;14.88;76.74;100282.50;4856435;29;20021;-86
2021/08/12 08:40:54;;;;;;;17.88;3.15;;;;;;;14.87;76.38;100264.56;4859208;29;20406;-87
2021/08/12 08:43:19;;;;;;;16.40;4.07;;;;;;;14.95;75.95;100281.41;4865372;29;20550;-85
2021/08/12 08:45:45;;;;;;;16.50;6.05;;;;;;;15.01;75.62;100268.88;4876184;29;20040;-85
2021/08/12 08:48:14;;;;;;;14.07;2.75;;;;;;;15.00;75.48;100248.25;4857889;29;20025;-86
2021/08/12 08:50:41;;;;;;;16.30;4.57;;;;;;;15.05;75.74;100251.13;4874182;29;20032;-85
2021/08/12 08:53:06;;;;;;;16.15;3.10;;;;;;;15.08;76.24;100280.50;4873167;29;20800;-86
2021/08/12 08:55:32;;;;;;;11.38;2.38;;;;;;;15.01;77.19;100295.13;4866016;29;20124;-87
2021/08/12 08:57:58;;;;;;;19.10;3.08;;;;;;;14.98;78.04;100292.84;4859771;29;20025;-85
2021/08/12 09:00:25;;;;;;;12.45;2.97;;;;;;;14.91;78.53;100293.72;4872076;29;20040;-82
2021/08/12 09:02:51;;;;;;;13.48;2.90;;;;;;;14.85;79.43;100281.03;4872479;29;20029;-85
2021/08/12 09:05:17;;;;;;;10.52;3.00;;;;;;;14.72;81.05;100292.75;4882501;29;20454;-87
2021/08/12 09:07:44;;;;;;;15.43;3.35;;;;;;;14.65;81.75;100301.94;4862391;29;20036;-87
2021/08/12 09:10:14;;;;;;;22.33;3.38;;;;;;;14.56;82.76;100303.22;4861196;29;20025;-85
2021/08/12 09:12:41;;;;;;;20.15;4.25;;;;;;;14.47;83.66;100318.81;4864648;29;20024;-87
2021/08/12 09:15:12;;;;;;;14.60;4.30;;;;;;;14.42;84.06;100332.13;4874171;29;20032;-86
2021/08/12 09:17:38;;;;;;;14.80;3.67;;;;;;;14.37;84.86;100332.78;4873573;29;20194;-85
2021/08/12 09:20:14;;;;;;;21.88;4.30;;;;;;;14.21;85.90;100336.78;4867473;29;20039;-86
2021/08/12 09:23:05;;;;;;;14.75;3.33;;;;;;;14.11;87.41;100341.78;4875461;29;20048;-84
2021/08/12 09:25:35;;;;;;;21.15;3.72;;;;;;;13.98;88.53;100339.06;4877363;29;20085;-86
2021/08/12 09:28:19;;;;;;;22.17;3.90;;;;;;;13.84;89.79;100349.88;4868156;29;20084;-85
2021/08/12 09:31:00;;;;;;;21.17;3.92;;;;;;;13.71;90.73;100349.06;4882163;29;20060;-85
2021/08/12 09:33:27;;;;;;;16.15;3.45;;;;;;;13.75;90.90;100340.31;4882244;29;20037;-85
2021/08/12 09:35:53;;;;;;;14.38;3.78;;;;;;;13.73;91.36;100364.00;4881703;29;20036;-88
2021/08/12 09:38:19;;;;;;;21.27;4.40;;;;;;;13.70;91.78;100350.06;4864393;29;20025;-87
2021/08/12 09:40:52;;;;;;;18.42;3.65;;;;;;;13.70;91.88;100341.97;4861541;29;20483;-85
2021/08/12 09:43:17;;;;;;;14.83;4.53;;;;;;;13.77;91.76;100359.03;4869480;29;20486;-85
2021/08/12 09:45:43;;;;;;;15.95;3.58;;;;;;;13.76;91.57;100351.94;4879153;29;20096;-87
2021/08/12 09:48:15;;;;;;;14.45;2.97;;;;;;;13.91;91.98;100382.31;4870874;29;20060;-87
2021/08/12 09:50:42;;;;;;;16.27;3.53;;;;;;;13.94;92.01;100392.69;4854891;29;20021;-86
2021/08/12 09:53:08;;;;;;;17.92;3.38;;;;;;;13.96;91.80;100396.03;4868696;29;20025;-86
2021/08/12 09:55:39;;;;;;;11.05;3.15;;;;;;;13.91;91.76;100379.59;4879492;29;20036;-86
2021/08/12 09:58:04;;;;;;;17.95;3.63;;;;;;;14.03;91.45;100386.06;4869625;29;20044;-85
2021/08/12 10:00:34;;;;;;;22.27;3.92;;;;;;;14.12;90.88;100377.75;4871008;29;20514;-85
2021/08/12 10:03:00;;;;;;;22.55;3.47;;;;;;;14.31;90.58;100376.88;4870855;29;20036;-85
2021/08/12 10:05:26;;;;;;;24.42;4.18;;;;;;;14.55;90.16;100380.84;4867480;29;20101;-85
2021/08/12 10:07:53;;;;;;;13.43;3.08;;;;;;;15.14;89.22;100387.97;4867071;29;20793;-84
2021/08/12 10:10:27;;;;;;;18.30;4.47;;;;;;;15.63;88.26;100380.19;4866300;29;20123;-87
2021/08/12 10:12:55;;;;;;;22.10;4.72;;;;;;;15.99;88.13;100389.56;4874931;29;20032;-86
2021/08/12 10:15:26;;;;;;;20.42;3.67;;;;;;;16.13;86.83;100390.28;4863942;29;20037;-86
2021/08/12 10:17:53;;;;;;;14.98;3.17;;;;;;;16.34;85.33;100394.50;4871960;29;20033;-86
2021/08/12 10:20:24;;;;;;;14.43;3.63;;;;;;;16.75;83.86;100406.59;4865623;29;20032;-85
2021/08/12 10:22:52;;;;;;;15.55;3.40;;;;;;;17.14;83.33;100394.50;4863945;29;20028;-85
2021/08/12 10:25:19;;;;;;;14.77;2.63;;;;;;;16.97;81.29;100388.03;4873066;29;20033;-86
2021/08/12 10:27:47;;;;;;;21.20;3.67;;;;;;;16.74;80.92;100399.53;4864600;29;20123;-86
2021/08/12 10:30:13;;;;;;;15.55;2.90;;;;;;;16.49;81.35;100389.56;4862679;29;20094;-86
2021/08/12 10:32:44;;;;;;;22.02;3.70;;;;;;;16.38;82.27;100403.84;4871453;29;20078;-87
2021/08/12 10:35:09;;;;;;;18.10;4.00;;;;;;;16.31;82.48;100375.94;4869977;29;20514;-86
2021/08/12 10:37:35;;;;;;;18.98;4.97;;;;;;;16.33;82.34;100403.69;4870436;29;20048;-84
2021/08/12 10:40:00;;;;;;;17.50;3.67;;;;;;;16.13;81.36;100401.97;4878081;29;20030;-86
2021/08/12 10:42:26;;;;;;;20.10;4.18;;;;;;;16.38;79.20;100409.25;4887045;29;20120;-85
2021/08/12 10:44:52;;;;;;;14.68;3.28;;;;;;;16.75;79.03;100399.31;4884681;29;20076;-87
2021/08/12 10:47:36;;;;;;;19.67;3.40;;;;;;;16.75;78.74;100398.47;4870671;29;20040;-90
2021/08/12 10:50:26;;;;;;;15.45;3.17;;;;;;;16.60;78.46;100407.00;4874745;29;20498;-87
2021/08/12 10:53:04;;;;;;;24.05;4.03;;;;;;;16.41;76.87;100400.69;4887390;29;20033;-86
2021/08/12 10:55:31;;;;;;;19.65;3.78;;;;;;;16.26;76.56;100404.56;4877494;29;20048;-86
2021/08/12 10:58:18;;;;;;;21.38;3.58;;;;;;;16.13;75.99;100418.25;4873127;29;20044;-86
2021/08/12 11:00:48;;;;;;;15.82;3.25;;;;;;;15.99;76.68;100416.69;4884735;29;20394;-85
2021/08/12 11:03:14;;;;;;;15.43;2.95;;;;;;;15.99;77.43;100414.81;4876478;29;20107;-86
2021/08/12 11:06:04;;;;;;;26.70;4.53;;;;;;;16.01;78.06;100415.41;4874996;29;20124;-85
2021/08/12 11:08:57;;;;;;;28.13;4.05;;;;;;;16.20;78.26;100419.03;4889903;29;20029;-86
2021/08/12 11:11:26;;;;;;;20.63;4.05;;;;;;;16.27;79.18;100414.38;4869592;29;20514;-86
2021/08/12 11:14:01;;;;;;;28.02;4.05;;;;;;;16.24;79.85;100408.56;4872917;29;20197;-86
2021/08/12 11:16:49;;;;;;;20.60;3.42;;;;;;;16.21;79.33;100406.28;4885387;29;20036;-86
2021/08/12 11:19:21;;;;;;;22.67;3.40;;;;;;;16.36;78.64;100420.34;4867298;29;20038;-85
2021/08/12 11:21:47;;;;;;;22.83;3.50;;;;;;;16.36;79.40;100423.06;4869722;29;20490;-86
2021/08/12 11:24:22;;;;;;;23.02;3.10;;;;;;;16.24;80.45;100431.06;4867443;29;20076;-85